Time;durP1;ratioP1;P1;durP2;ratioP2;P2;SDS_P1;SDS_P2;PMS_P1;PMS_P2;Temp;Humidity;BMP_temperature;BMP_pressure;BME280_temperature;BME280_humidity;BME280_pressure;Samples;Min_cycle;Max_cycle;Signal;HPM_P1;HPM_P2
2023/04/27 00:00:29;;;;;;;0.53;0.53;;;14.20;99.90;;;;;;5082572;28;20164;-81
2023/04/27 00:02:55;;;;;;;1.03;0.90;;;14.20;99.90;;;;;;5082486;28;20235;-81
2023/04/27 00:05:21;;;;;;;0.73;0.67;;;14.30;99.90;;;;;;5082623;28;20028;-81
2023/04/27 00:07:47;;;;;;;0.10;0.10;;;14.30;99.90;;;;;;5078708;28;20646;-81
2023/04/27 00:10:13;;;;;;;0.63;0.60;;;14.20;99.90;;;;;;5068675;28;20041;-81
2023/04/27 00:12:41;;;;;;;0.07;0.07;;;14.20;99.90;;;;;;5082533;28;20036;-81
2023/04/27 00:15:07;;;;;;;0.52;0.52;;;14.20;99.90;;;;;;5082672;28;20082;-81
2023/04/27 00:17:33;;;;;;;0.20;0.20;;;14.10;99.90;;;;;;5089494;28;20024;-81
2023/04/27 00:19:59;;;;;;;9.53;0.83;;;14.00;99.90;;;;;;5081611;28;20035;-81
2023/04/27 00:22:25;;;;;;;0.20;0.20;;;14.10;99.90;;;;;;5084960;28;20028;-81
2023/04/27 00:24:51;;;;;;;0.55;0.55;;;13.90;99.90;;;;;;5081490;28;20282;-81
2023/04/27 00:27:16;;;;;;;1.45;0.32;;;13.90;99.90;;;;;;5081741;28;20035;-81
2023/04/27 00:29:42;;;;;;;0.30;0.30;;;14.00;99.90;;;;;;5082810;28;20036;-81
2023/04/27 00:32:09;;;;;;;0.30;0.30;;;14.00;99.90;;;;;;5087996;28;20023;-81
2023/04/27 00:34:35;;;;;;;0.00;0.00;;;14.00;99.90;;;;;;5077396;28;20138;-81
2023/04/27 00:37:01;;;;;;;0.10;0.10;;;14.00;99.90;;;;;;5080481;28;20031;-80
2023/04/27 00:39:26;;;;;;;0.20;0.20;;;13.90;99.90;;;;;;5076570;28;20674;-81
2023/04/27 00:41:52;;;;;;;0.10;0.10;;;14.00;99.90;;;;;;5085407;28;20114;-81
2023/04/27 00:44:23;;;;;;;0.20;0.20;;;14.00;99.90;;;;;;5095219;28;20110;-82
2023/04/27 00:46:48;;;;;;;0.10;0.10;;;14.00;99.90;;;;;;5089075;28;20588;-82
2023/04/27 00:49:14;;;;;;;0.22;0.22;;;14.00;99.90;;;;;;5085400;28;20032;-81
2023/04/27 00:51:40;;;;;;;0.22;0.22;;;14.10;99.90;;;;;;5076910;28;20051;-81
2023/04/27 00:54:06;;;;;;;1.40;0.73;;;14.00;99.90;;;;;;5078842;28;20078;-81
2023/04/27 00:56:32;;;;;;;0.20;0.20;;;13.90;99.90;;;;;;5082688;28;20108;-81
2023/04/27 00:58:57;;;;;;;0.13;0.13;;;13.80;99.90;;;;;;5073889;28;20027;-81
2023/04/27 01:01:23;;;;;;;0.30;0.30;;;13.70;99.90;;;;;;5080964;28;20537;-80
2023/04/27 01:03:48;;;;;;;0.03;0.03;;;13.70;99.90;;;;;;5081730;28;20305;-79
2023/04/27 01:06:14;;;;;;;0.10;0.10;;;13.70;99.90;;;;;;5081824;28;20102;-80
2023/04/27 01:08:40;;;;;;;0.10;0.10;;;13.80;99.90;;;;;;5085267;28;20479;-80
2023/04/27 01:11:05;;;;;;;0.30;0.30;;;13.80;99.90;;;;;;5080549;28;20102;-81
2023/04/27 01:13:31;;;;;;;0.10;0.10;;;13.70;99.90;;;;;;5081558;28;20030;-81
2023/04/27 01:15:57;;;;;;;0.10;0.10;;;13.80;99.90;;;;;;5075972;28;20028;-80
2023/04/27 01:18:23;;;;;;;0.00;0.00;;;13.80;99.90;;;;;;5077462;28;20093;-80
2023/04/27 01:20:49;;;;;;;0.10;0.10;;;13.70;99.90;;;;;;5059916;28;20044;-81
2023/04/27 01:23:15;;;;;;;0.10;0.10;;;13.70;99.90;;;;;;5079886;28;20028;-80
2023/04/27 01:25:40;;;;;;;0.35;0.35;;;13.70;99.90;;;;;;5056962;28;20039;-81
2023/04/27 01:28:06;;;;;;;0.00;0.00;;;13.70;99.90;;;;;;5080616;28;20036;-80
2023/04/27 01:30:32;;;;;;;0.10;0.10;;;13.80;99.90;;;;;;5080805;28;20040;-80
2023/04/27 01:32:58;;;;;;;0.10;0.10;;;13.70;99.90;;;;;;5080803;28;20042;-82
2023/04/27 01:35:23;;;;;;;0.20;0.20;;;13.70;99.90;;;;;;5085758;28;20051;-81
2023/04/27 01:37:50;;;;;;;0.17;0.17;;;13.70;99.90;;;;;;5088991;28;20077;-82
2023/04/27 01:40:15;;;;;;;0.20;0.20;;;13.70;99.90;;;;;;5081571;28;20047;-80
2023/04/27 01:42:41;;;;;;;0.30;0.30;;;13.70;99.90;;;;;;5080637;28;20024;-80
2023/04/27 01:45:08;;;;;;;0.23;0.23;;;13.80;99.90;;;;;;5062516;28;20028;-80
2023/04/27 01:47:33;;;;;;;0.00;0.00;;;13.80;99.90;;;;;;5061272;28;20791;-81
2023/04/27 01:49:59;;;;;;;0.00;0.00;;;13.80;99.90;;;;;;5072872;28;20144;-81
2023/04/27 01:52:25;;;;;;;0.00;0.00;;;13.80;99.90;;;;;;5080445;28;20031;-80
2023/04/27 01:54:51;;;;;;;0.00;0.00;;;13.80;99.90;;;;;;5079325;28;20109;-82
2023/04/27 01:57:16;;;;;;;0.10;0.10;;;13.80;99.90;;;;;;5079822;28;20102;-81
2023/04/27 01:59:42;;;;;;;0.10;0.10;;;13.80;99.90;;;;;;5062066;28;20040;-82
2023/04/27 02:02:08;;;;;;;0.47;0.47;;;13.90;99.90;;;;;;5076426;28;20031;-83
2023/04/27 02:04:35;;;;;;;0.10;0.10;;;13.80;99.90;;;;;;5080245;28;20031;-82
2023/04/27 02:07:01;;;;;;;0.15;0.15;;;13.80;99.90;;;;;;5076546;28;20020;-83
2023/04/27 02:09:26;;;;;;;0.30;0.30;;;13.90;99.90;;;;;;5080014;28;20028;-81
2023/04/27 02:11:52;;;;;;;0.30;0.30;;;13.90;99.90;;;;;;5078958;28;20472;-82
2023/04/27 02:14:18;;;;;;;0.03;0.03;;;14.00;99.90;;;;;;5063856;28;20043;-80
2023/04/27 02:16:43;;;;;;;0.10;0.10;;;14.00;99.90;;;;;;5080590;28;20032;-81
2023/04/27 02:19:09;;;;;;;0.17;0.17;;;13.90;99.90;;;;;;5079064;28;20036;-80
2023/04/27 02:21:35;;;;;;;0.30;0.30;;;13.90;99.90;;;;;;5073945;28;20869;-81
2023/04/27 02:24:00;;;;;;;0.00;0.00;;;13.90;99.90;;;;;;5077656;28;20032;-81
2023/04/27 02:26:28;;;;;;;0.05;0.05;;;13.90;99.90;;;;;;5081249;28;20491;-81
2023/04/27 02:28:55;;;;;;;0.10;0.10;;;14.00;99.90;;;;;;5085660;28;20479;-81
2023/04/27 02:31:21;;;;;;;4.00;0.98;;;13.90;99.90;;;;;;5084306;28;20035;-81
2023/04/27 02:33:47;;;;;;;0.77;0.77;;;14.00;99.90;;;;;;5081806;28;20037;-83
2023/04/27 02:36:13;;;;;;;0.10;0.10;;;13.90;99.90;;;;;;5079728;28;20526;-83
2023/04/27 02:38:38;;;;;;;0.40;0.40;;;13.90;99.90;;;;;;5081219;28;20020;-83
2023/04/27 02:41:04;;;;;;;0.70;0.70;;;13.90;99.90;;;;;;5081192;28;20064;-83
2023/04/27 02:43:30;;;;;;;0.10;0.10;;;13.90;99.90;;;;;;5087604;28;20059;-83
2023/04/27 02:45:55;;;;;;;0.30;0.30;;;13.90;99.90;;;;;;5083795;28;20115;-84
2023/04/27 02:48:21;;;;;;;0.80;0.80;;;13.80;99.90;;;;;;5078227;28;20029;-84
2023/04/27 02:50:47;;;;;;;1.47;1.30;;;13.80;99.90;;;;;;5086384;28;20558;-82
2023/04/27 02:53:12;;;;;;;0.10;0.10;;;13.80;99.90;;;;;;5085654;28;20051;-83
2023/04/27 02:55:47;;;;;;;0.10;0.10;;;13.80;99.90;;;;;;5076947;28;20078;-83
2023/04/27 02:58:12;;;;;;;0.30;0.30;;;13.70;99.90;;;;;;5083514;28;20101;-82
2023/04/27 03:00:39;;;;;;;0.63;0.63;;;13.80;99.90;;;;;;5085294;28;20044;-82
2023/04/27 03:03:05;;;;;;;;;;;13.90;99.90;;;;;;5071924;28;20838;-82
2023/04/27 03:05:31;;;;;;;0.27;0.27;;;13.80;99.90;;;;;;5102343;28;19917;-81
2023/04/27 03:07:56;;;;;;;0.10;0.10;;;13.80;99.90;;;;;;5096042;28;20483;-81
2023/04/27 03:10:22;;;;;;;0.30;0.30;;;13.80;99.90;;;;;;5082501;28;20585;-81
2023/04/27 03:12:48;;;;;;;0.10;0.10;;;13.80;99.90;;;;;;5094204;28;20168;-82
2023/04/27 03:15:13;;;;;;;0.30;0.30;;;13.80;99.90;;;;;;5094160;28;20021;-81
2023/04/27 03:17:39;;;;;;;1.07;1.00;;;13.80;99.90;;;;;;5086664;28;20511;-81
2023/04/27 03:20:08;;;;;;;0.20;0.20;;;13.80;99.90;;;;;;5074622;28;20047;-81
2023/04/27 03:22:34;;;;;;;0.35;0.35;;;13.70;99.90;;;;;;5084960;28;20483;-80
2023/04/27 03:25:00;;;;;;;0.10;0.10;;;13.70;99.90;;;;;;5084204;28;20103;-81
2023/04/27 03:27:26;;;;;;;0.30;0.30;;;13.70;99.90;;;;;;5077350;28;20036;-81
2023/04/27 03:29:54;;;;;;;0.40;0.40;;;13.70;99.90;;;;;;5084105;28;20036;-81
2023/04/27 03:32:20;;;;;;;0.17;0.17;;;13.70;99.90;;;;;;5077918;28;20028;-82
2023/04/27 03:34:46;;;;;;;0.20;0.20;;;13.70;99.90;;;;;;5085461;28;20177;-81
2023/04/27 03:37:12;;;;;;;0.10;0.10;;;13.70;99.90;;;;;;5073752;28;20102;-81
2023/04/27 03:39:37;;;;;;;0.10;0.10;;;13.60;99.90;;;;;;5082466;28;20028;-81
2023/04/27 03:42:04;;;;;;;0.10;0.10;;;13.60;99.90;;;;;;5086581;28;20115;-81
2023/04/27 03:44:33;;;;;;;0.10;0.10;;;13.70;99.90;;;;;;5082580;28;20119;-82
2023/04/27 03:46:59;;;;;;;0.40;0.40;;;13.80;99.90;;;;;;5059545;28;20785;-80
2023/04/27 03:49:25;;;;;;;0.30;0.30;;;13.70;99.90;;;;;;5085128;28;20119;-80
2023/04/27 03:51:51;;;;;;;0.52;0.43;;;13.80;99.90;;;;;;5080840;28;20023;-80
2023/04/27 03:54:17;;;;;;;0.47;0.32;;;13.60;99.90;;;;;;5083120;28;20032;-80
2023/04/27 03:56:43;;;;;;;3.83;0.93;;;13.40;99.90;;;;;;5078851;28;20024;-80
2023/04/27 03:59:09;;;;;;;0.00;0.00;;;13.40;99.90;;;;;;5082843;28;20020;-80
2023/04/27 04:01:35;;;;;;;0.00;0.00;;;13.30;99.90;;;;;;5077732;28;20902;-80
2023/04/27 04:04:01;;;;;;;0.20;0.20;;;13.30;99.90;;;;;;5079082;28;20085;-79
2023/04/27 04:06:26;;;;;;;0.67;0.30;;;13.40;99.90;;;;;;5082082;28;20062;-79
2023/04/27 04:08:53;;;;;;;0.00;0.00;;;13.40;99.90;;;;;;5082951;28;20036;-79
2023/04/27 04:11:18;;;;;;;0.20;0.20;;;13.50;99.90;;;;;;5082437;28;20043;-79
2023/04/27 04:13:44;;;;;;;0.40;0.40;;;13.50;99.90;;;;;;5079149;28;20033;-80
2023/04/27 04:16:10;;;;;;;0.00;0.00;;;13.60;99.90;;;;;;5075174;28;20089;-80
2023/04/27 04:18:36;;;;;;;0.20;0.20;;;13.60;99.90;;;;;;5093509;28;20024;-80
2023/04/27 04:21:02;;;;;;;0.20;0.20;;;13.60;99.90;;;;;;5078126;28;20774;-81
2023/04/27 04:23:28;;;;;;;0.10;0.10;;;13.70;99.90;;;;;;5080860;28;20052;-83
2023/04/27 04:25:57;;;;;;;0.13;0.13;;;13.70;99.90;;;;;;5080339;28;20113;-80
2023/04/27 04:28:23;;;;;;;0.22;0.22;;;13.60;99.90;;;;;;5082875;28;20103;-81
2023/04/27 04:30:49;;;;;;;0.20;0.20;;;13.70;99.90;;;;;;5074563;28;20598;-80
2023/04/27 04:33:15;;;;;;;0.25;0.25;;;13.60;99.90;;;;;;5068686;28;20044;-80
2023/04/27 04:35:41;;;;;;;0.10;0.10;;;13.60;99.90;;;;;;5083052;28;20055;-81
2023/04/27 04:38:07;;;;;;;0.20;0.20;;;13.50;99.90;;;;;;5082729;28;20035;-81
2023/04/27 04:40:33;;;;;;;0.30;0.30;;;13.50;99.90;;;;;;5082027;28;20032;-81
2023/04/27 04:42:59;;;;;;;0.40;0.40;;;13.40;99.90;;;;;;5082727;28;20039;-81
2023/04/27 04:45:25;;;;;;;0.82;0.40;;;13.40;99.90;;;;;;5089197;28;20031;-81
2023/04/27 04:47:53;;;;;;;0.40;0.40;;;13.30;99.90;;;;;;5072329;28;20518;-81
2023/04/27 04:50:18;;;;;;;1.08;0.28;;;13.30;99.90;;;;;;5080607;28;20596;-81
2023/04/27 04:52:45;;;;;;;0.00;0.00;;;13.30;99.90;;;;;;5080044;28;20036;-81
2023/04/27 04:55:10;;;;;;;0.08;0.08;;;13.30;99.90;;;;;;5081561;28;20020;-81
2023/04/27 04:57:36;;;;;;;0.32;0.32;;;13.30;99.90;;;;;;5089528;28;20050;-80
2023/04/27 05:00:05;;;;;;;0.63;0.63;;;13.30;99.90;;;;;;5080579;28;20043;-82
2023/04/27 05:02:31;;;;;;;3.13;0.30;;;13.30;99.90;;;;;;5059593;28;20032;-83
2023/04/27 05:04:57;;;;;;;0.30;0.30;;;13.20;99.90;;;;;;5094746;28;20019;-80
2023/04/27 05:07:22;;;;;;;0.27;0.27;;;13.30;99.90;;;;;;5078058;28;20027;-80
2023/04/27 05:09:48;;;;;;;0.30;0.30;;;13.30;99.90;;;;;;5073532;28;20036;-82
2023/04/27 05:12:14;;;;;;;0.47;0.47;;;13.30;99.90;;;;;;5086116;28;20035;-85
2023/04/27 05:14:39;;;;;;;0.43;0.40;;;13.30;99.90;;;;;;5082177;28;20123;-85
2023/04/27 05:17:05;;;;;;;0.53;0.53;;;13.30;99.90;;;;;;5085849;28;20036;-85
2023/04/27 05:19:31;;;;;;;3.87;0.47;;;13.40;99.90;;;;;;5074064;28;20133;-85
2023/04/27 05:21:57;;;;;;;0.45;0.45;;;13.40;99.90;;;;;;5075547;28;20427;-85
2023/04/27 05:24:25;;;;;;;0.20;0.20;;;13.50;99.90;;;;;;5078844;28;20028;-84
2023/04/27 05:26:50;;;;;;;0.20;0.20;;;13.50;99.90;;;;;;5075272;28;20024;-83
2023/04/27 05:29:16;;;;;;;0.40;0.40;;;13.50;99.90;;;;;;5070590;28;20032;-82
2023/04/27 05:31:44;;;;;;;1.07;1.00;;;13.40;99.90;;;;;;5072838;28;20040;-87
2023/04/27 05:34:10;;;;;;;0.10;0.10;;;13.40;99.90;;;;;;5074929;28;20064;-85
2023/04/27 05:36:36;;;;;;;0.32;0.32;;;13.40;99.90;;;;;;5062537;28;20077;-84
2023/04/27 05:39:02;;;;;;;0.10;0.10;;;13.30;99.90;;;;;;5086066;28;20122;-83
2023/04/27 05:41:29;;;;;;;0.10;0.10;;;13.40;99.90;;;;;;5081473;28;20039;-83
2023/04/27 05:43:55;;;;;;;0.43;0.43;;;13.50;99.90;;;;;;5076498;28;20498;-83
2023/04/27 05:46:21;;;;;;;0.20;0.20;;;13.60;99.90;;;;;;5073962;28;20043;-83
2023/04/27 05:48:47;;;;;;;0.20;0.20;;;13.70;99.90;;;;;;5063038;28;20038;-84
2023/04/27 05:51:12;;;;;;;0.10;0.10;;;13.80;99.90;;;;;;5090485;28;20023;-86
2023/04/27 05:53:38;;;;;;;0.37;0.37;;;14.00;99.90;;;;;;5080294;28;20111;-83
2023/04/27 05:56:05;;;;;;;0.30;0.30;;;14.40;99.90;;;;;;5079977;28;20028;-84
2023/04/27 05:58:32;;;;;;;0.35;0.35;;;14.60;99.90;;;;;;5081120;28;20509;-84
2023/04/27 06:00:59;;;;;;;0.47;0.47;;;14.80;99.90;;;;;;5085552;28;20117;-84
2023/04/27 06:03:24;;;;;;;;;;;14.70;99.90;;;;;;5088209;28;20143;-83
2023/04/27 06:05:54;;;;;;;0.20;0.20;;;14.50;99.90;;;;;;5078321;28;19909;-83
2023/04/27 06:08:20;;;;;;;0.52;0.52;;;14.10;99.90;;;;;;5069904;28;20039;-83
2023/04/27 06:10:46;;;;;;;1.17;1.07;;;14.20;99.90;;;;;;5080772;28;20032;-85
2023/04/27 06:13:11;;;;;;;0.50;0.50;;;14.30;99.90;;;;;;5067377;28;20032;-86
2023/04/27 06:15:37;;;;;;;0.47;0.47;;;14.50;99.90;;;;;;5072320;28;20025;-84
2023/04/27 06:18:03;;;;;;;0.10;0.10;;;14.50;99.90;;;;;;5080130;28;20024;-88
2023/04/27 06:20:28;;;;;;;0.10;0.10;;;14.30;99.90;;;;;;5081438;28;20060;-85
2023/04/27 06:22:55;;;;;;;0.10;0.10;;;14.30;99.90;;;;;;5085116;28;20524;-85
2023/04/27 06:25:21;;;;;;;1.17;0.60;;;14.30;99.90;;;;;;5084369;28;20020;-82
2023/04/27 06:27:47;;;;;;;0.20;0.20;;;14.40;99.90;;;;;;5070807;28;20083;-80
2023/04/27 06:30:12;;;;;;;0.37;0.37;;;14.70;99.90;;;;;;5077303;28;20031;-82
2023/04/27 06:32:38;;;;;;;0.40;0.40;;;14.80;99.90;;;;;;5083797;28;20550;-80
2023/04/27 06:35:04;;;;;;;0.07;0.07;;;14.80;99.90;;;;;;5083184;28;20044;-81
2023/04/27 06:37:30;;;;;;;1.45;0.85;;;15.00;99.90;;;;;;5095643;28;20038;-81
2023/04/27 06:39:56;;;;;;;0.37;0.37;;;14.80;99.90;;;;;;5081544;28;20052;-80
2023/04/27 06:42:21;;;;;;;0.50;0.50;;;14.80;99.90;;;;;;5092909;28;20020;-81
2023/04/27 06:44:47;;;;;;;0.03;0.03;;;14.90;99.90;;;;;;5084380;28;20035;-80
2023/04/27 06:47:13;;;;;;;0.10;0.10;;;14.90;99.90;;;;;;5095268;28;20020;-80
2023/04/27 06:49:38;;;;;;;0.10;0.10;;;15.20;99.90;;;;;;5085030;28;20772;-80
2023/04/27 06:52:04;;;;;;;3.27;1.50;;;15.40;99.90;;;;;;5085320;28;20029;-80
2023/04/27 06:54:30;;;;;;;0.10;0.10;;;15.50;99.90;;;;;;5074940;28;20024;-80
2023/04/27 06:56:55;;;;;;;0.40;0.40;;;15.40;99.90;;;;;;5068989;28;20040;-80
2023/04/27 06:59:21;;;;;;;0.10;0.10;;;15.30;99.90;;;;;;5082716;28;20123;-80
2023/04/27 07:01:47;;;;;;;0.20;0.20;;;15.20;99.90;;;;;;5065837;28;20122;-80
2023/04/27 07:04:13;;;;;;;0.73;0.73;;;15.30;99.90;;;;;;5074018;28;20028;-80
2023/04/27 07:06:38;;;;;;;0.10;0.10;;;15.50;99.90;;;;;;5086629;28;20708;-80
2023/04/27 07:09:07;;;;;;;0.30;0.30;;;15.80;99.90;;;;;;5084399;28;20056;-80
2023/04/27 07:11:32;;;;;;;0.05;0.05;;;16.00;99.90;;;;;;5084467;28;20016;-80
2023/04/27 07:13:58;;;;;;;5.70;0.63;;;16.20;99.90;;;;;;5084765;28;20725;-80
2023/04/27 07:16:24;;;;;;;0.10;0.10;;;16.00;99.90;;;;;;5083987;28;20056;-81
2023/04/27 07:18:50;;;;;;;0.20;0.20;;;15.70;99.90;;;;;;5084704;28;20819;-80
2023/04/27 07:21:16;;;;;;;0.10;0.10;;;15.50;99.90;;;;;;5074476;28;20054;-80
2023/04/27 09:54:23;;;;;;;0.00;0.00;;;20.90;97.50;;;;;;5092588;22;1399339;-78
2023/04/27 09:57:10;;;;;;;0.00;0.00;;;20.20;97.70;;;;;;5073095;28;20071;-77
2023/04/27 09:59:49;;;;;;;0.10;0.10;;;19.30;97.20;;;;;;5070559;28;20036;-78
2023/04/27 10:02:17;;;;;;;0.00;0.00;;;19.80;97.50;;;;;;5075571;28;20024;-77
2023/04/27 10:05:22;;;;;;;0.05;0.05;;;20.10;96.50;;;;;;5078781;28;20032;-79
2023/04/27 10:07:48;;;;;;;0.00;0.00;;;20.00;97.50;;;;;;5074549;28;20024;-79
2023/04/27 10:10:17;;;;;;;0.15;0.15;;;20.00;97.20;;;;;;5081466;28;20024;-78
2023/04/27 10:12:54;;;;;;;0.00;0.00;;;19.90;96.70;;;;;;5077542;28;20127;-77
2023/04/27 10:15:24;;;;;;;;;;;20.20;97.10;;;;;;5077274;28;20028;-78
2023/04/27 10:17:57;;;;;;;0.05;0.05;;;20.10;98.20;;;;;;5076510;28;19916;-79
2023/04/27 10:20:32;;;;;;;0.00;0.00;;;19.90;97.60;;;;;;5078294;28;20020;-81
2023/04/27 10:22:59;;;;;;;0.00;0.00;;;19.80;97.30;;;;;;5059399;28;20090;-80
2023/04/27 10:25:24;;;;;;;;;;;20.10;97.70;;;;;;5074670;28;20031;-77
2023/04/27 10:27:56;;;;;;;0.15;0.15;;;20.30;96.40;;;;;;5071974;28;19912;-79
2023/04/27 10:30:24;;;;;;;0.35;0.32;;;20.30;94.90;;;;;;5058051;28;20394;-79
2023/04/27 10:32:56;;;;;;;0.00;0.00;;;20.50;95.30;;;;;;5069273;28;20037;-80
2023/04/27 10:35:36;;;;;;;0.00;0.00;;;20.40;97.20;;;;;;5074161;28;20024;-80
2023/04/27 10:38:16;;;;;;;0.00;0.00;;;20.50;96.90;;;;;;5070716;28;20078;-79
2023/04/27 10:40:44;;;;;;;0.00;0.00;;;20.40;98.00;;;;;;5079034;28;20051;-79
2023/04/27 10:43:11;;;;;;;0.00;0.00;;;20.70;97.50;;;;;;5076475;28;20108;-79
2023/04/27 10:45:37;;;;;;;0.08;0.08;;;20.90;96.70;;;;;;5074279;28;20031;-79
2023/04/27 10:48:04;;;;;;;0.00;0.00;;;21.10;96.20;;;;;;5076547;28;20020;-78
2023/04/27 10:50:30;;;;;;;0.20;0.20;;;21.20;96.70;;;;;;5076758;28;20055;-78
2023/04/27 10:53:06;;;;;;;0.30;0.30;;;21.20;95.30;;;;;;5077334;28;20040;-80
2023/04/27 10:55:33;;;;;;;0.00;0.00;;;21.10;95.10;;;;;;5074181;28;20521;-78
2023/04/27 10:58:00;;;;;;;0.00;0.00;;;21.30;95.90;;;;;;5078099;28;20131;-77
2023/04/27 11:00:31;;;;;;;0.00;0.00;;;21.60;95.50;;;;;;5076432;28;20499;-79
2023/04/27 11:03:18;;;;;;;0.08;0.08;;;21.70;95.10;;;;;;5073825;28;20029;-79
2023/04/27 11:05:45;;;;;;;0.10;0.10;;;21.50;93.60;;;;;;5055323;28;20024;-78
2023/04/27 11:08:14;;;;;;;0.10;0.10;;;21.00;93.00;;;;;;5057627;28;21490;-79
2023/04/27 11:10:43;;;;;;;0.00;0.00;;;21.50;94.30;;;;;;5061502;28;20221;-79
2023/04/27 11:13:21;;;;;;;0.40;0.40;;;21.50;93.90;;;;;;5061868;28;20072;-78
2023/04/27 11:15:56;;;;;;;0.00;0.00;;;21.30;93.00;;;;;;5059782;28;20100;-79
2023/04/27 11:18:28;;;;;;;0.00;0.00;;;21.40;93.80;;;;;;5060068;28;20146;-79
2023/04/27 11:21:08;;;;;;;0.00;0.00;;;21.50;93.60;;;;;;5058169;28;20050;-78
2023/04/27 11:23:38;;;;;;;0.20;0.20;;;21.60;92.70;;;;;;5060051;28;20029;-77
2023/04/27 11:26:17;;;;;;;0.00;0.00;;;21.70;93.80;;;;;;5041224;28;20102;-79
2023/04/27 11:29:00;;;;;;;0.00;0.00;;;21.90;92.50;;;;;;5052109;28;20401;-77
2023/04/27 11:31:37;;;;;;;0.00;0.00;;;22.10;92.00;;;;;;5064490;28;20025;-79
2023/04/27 11:34:03;;;;;;;0.00;0.00;;;22.40;92.50;;;;;;5062943;28;20032;-79
2023/04/27 11:36:29;;;;;;;0.00;0.00;;;22.50;91.70;;;;;;5063443;28;20097;-77
2023/04/27 11:38:58;;;;;;;0.00;0.00;;;22.20;93.10;;;;;;5063010;28;20120;-78
2023/04/27 11:41:32;;;;;;;0.00;0.00;;;22.20;93.60;;;;;;5064286;28;20051;-79
2023/04/27 11:44:07;;;;;;;0.00;0.00;;;22.50;92.40;;;;;;5060963;28;20020;-80
2023/04/27 11:46:36;;;;;;;0.10;0.10;;;22.30;92.10;;;;;;5061859;28;20401;-79
2023/04/27 11:49:04;;;;;;;0.00;0.00;;;22.40;92.20;;;;;;5058557;28;20428;-80
2023/04/27 11:51:32;;;;;;;0.00;0.00;;;22.70;94.50;;;;;;5059743;28;20151;-79
2023/04/27 11:54:01;;;;;;;0.00;0.00;;;22.60;92.20;;;;;;5040883;28;20057;-79
2023/04/27 11:56:40;;;;;;;0.00;0.00;;;22.60;92.50;;;;;;5060138;28;20806;-79
2023/04/27 11:59:21;;;;;;;0.10;0.10;;;22.30;91.30;;;;;;5057764;28;20031;-79
2023/04/27 12:01:47;;;;;;;5.07;0.57;;;22.30;90.40;;;;;;5056839;28;20090;-80
2023/04/27 12:04:13;;;;;;;0.00;0.00;;;22.50;92.10;;;;;;5059043;28;20328;-79
2023/04/27 12:06:39;;;;;;;0.00;0.00;;;22.20;90.10;;;;;;5062965;28;20064;-78
2023/04/27 12:09:05;;;;;;;0.00;0.00;;;22.60;90.70;;;;;;5045942;28;20838;-78
2023/04/27 12:11:32;;;;;;;0.00;0.00;;;22.10;88.90;;;;;;5063178;28;20040;-78
2023/04/27 12:13:57;;;;;;;0.00;0.00;;;22.50;87.70;;;;;;5064823;28;20119;-79
2023/04/27 12:16:23;;;;;;;0.00;0.00;;;22.80;88.10;;;;;;5064414;28;21032;-78
2023/04/27 12:18:49;;;;;;;0.33;0.33;;;22.70;86.50;;;;;;5062472;28;20320;-78
2023/04/27 12:21:15;;;;;;;0.10;0.10;;;22.60;87.70;;;;;;5062198;28;20025;-79
2023/04/27 12:23:42;;;;;;;0.08;0.08;;;22.20;88.40;;;;;;5060801;28;20095;-80
2023/04/27 12:26:08;;;;;;;0.00;0.00;;;22.70;87.90;;;;;;5063548;28;20025;-79
2023/04/27 12:28:34;;;;;;;0.20;0.20;;;22.70;88.90;;;;;;5062931;28;20036;-78
2023/04/27 12:31:03;;;;;;;0.00;0.00;;;22.20;88.70;;;;;;5064106;28;20067;-79
2023/04/27 12:33:29;;;;;;;0.10;0.10;;;22.60;86.50;;;;;;5040541;28;20044;-79
2023/04/27 12:35:55;;;;;;;0.00;0.00;;;22.10;86.70;;;;;;5059851;28;20039;-78
2023/04/27 12:38:21;;;;;;;0.00;0.00;;;21.70;89.50;;;;;;5059159;28;20109;-78
2023/04/27 12:40:47;;;;;;;0.00;0.00;;;22.10;88.40;;;;;;5060158;28;20052;-79
2023/04/27 12:43:13;;;;;;;0.03;0.03;;;22.50;87.90;;;;;;5062927;28;20033;-79
2023/04/27 12:45:39;;;;;;;0.10;0.10;;;22.70;90.60;;;;;;5063185;28;20195;-77
2023/04/27 12:48:06;;;;;;;0.00;0.00;;;22.80;90.30;;;;;;5037054;28;20680;-79
2023/04/27 12:50:31;;;;;;;0.00;0.00;;;22.30;82.50;;;;;;5060168;28;20021;-76
2023/04/27 12:52:57;;;;;;;0.00;0.00;;;22.40;86.70;;;;;;5058221;28;20075;-79
2023/04/27 12:55:23;;;;;;;0.80;0.53;;;22.70;86.70;;;;;;5057215;28;20671;-79
2023/04/27 12:57:49;;;;;;;2.23;0.63;;;22.70;87.40;;;;;;5061369;28;20035;-77
2023/04/27 13:00:15;;;;;;;0.00;0.00;;;22.90;87.80;;;;;;5056222;28;20033;-77
2023/04/27 13:02:42;;;;;;;0.05;0.05;;;22.90;89.30;;;;;;5057020;28;20032;-78
2023/04/27 13:05:08;;;;;;;;;;;23.00;85.40;;;;;;5060881;28;20024;-79
2023/04/27 13:07:34;;;;;;;0.00;0.00;;;22.30;84.70;;;;;;5058505;28;19905;-77
2023/04/27 13:10:00;;;;;;;0.00;0.00;;;22.10;83.70;;;;;;5061663;28;20036;-78
2023/04/27 13:12:26;;;;;;;0.00;0.00;;;22.20;83.90;;;;;;5059601;28;20032;-78
2023/04/27 13:14:52;;;;;;;0.00;0.00;;;22.40;84.60;;;;;;5056011;28;20063;-78
2023/04/27 13:17:18;;;;;;;3.20;0.40;;;22.10;88.20;;;;;;5054769;28;20057;-79
2023/04/27 13:19:43;;;;;;;0.00;0.00;;;22.50;85.90;;;;;;5053117;28;20025;-77
2023/04/27 13:22:09;;;;;;;0.00;0.00;;;22.90;84.40;;;;;;5055978;28;20248;-78
2023/04/27 13:24:36;;;;;;;0.00;0.00;;;22.40;83.90;;;;;;5054955;28;20146;-77
2023/04/27 13:27:02;;;;;;;0.00;0.00;;;22.70;85.60;;;;;;5038354;28;20372;-77
2023/04/27 13:29:27;;;;;;;0.00;0.00;;;22.90;84.40;;;;;;5056231;28;20036;-78
2023/04/27 13:31:53;;;;;;;0.00;0.00;;;22.80;84.50;;;;;;5058928;28;20439;-77
2023/04/27 13:34:19;;;;;;;2.17;1.83;;;22.90;85.20;;;;;;5060147;28;20053;-76
2023/04/27 13:36:45;;;;;;;0.00;0.00;;;22.60;87.10;;;;;;5054887;28;20025;-78
2023/04/27 13:39:10;;;;;;;0.00;0.00;;;22.60;88.70;;;;;;5058735;28;20028;-79
2023/04/27 13:41:36;;;;;;;0.03;0.03;;;22.50;86.90;;;;;;5060537;28;20067;-78
2023/04/27 13:44:02;;;;;;;0.00;0.00;;;22.50;88.40;;;;;;5063202;28;20028;-78
2023/04/27 13:46:28;;;;;;;0.00;0.00;;;22.70;87.90;;;;;;5058825;28;20268;-79
2023/04/27 13:48:54;;;;;;;0.20;0.20;;;22.80;90.30;;;;;;5054914;28;20177;-78
2023/04/27 13:51:20;;;;;;;0.50;0.30;;;22.70;86.50;;;;;;5058338;28;20040;-77
2023/04/27 13:53:45;;;;;;;0.00;0.00;;;22.60;85.20;;;;;;5052686;28;20311;-78
2023/04/27 13:56:11;;;;;;;0.00;0.00;;;22.80;85.70;;;;;;5060980;28;20335;-79
2023/04/27 13:58:37;;;;;;;0.00;0.00;;;22.70;83.20;;;;;;5055655;28;20051;-78
2023/04/27 14:01:03;;;;;;;0.00;0.00;;;22.90;84.60;;;;;;5062187;28;20020;-78
2023/04/27 14:03:28;;;;;;;0.00;0.00;;;22.80;84.90;;;;;;5060381;28;20872;-78
2023/04/27 14:05:55;;;;;;;0.00;0.00;;;22.80;84.60;;;;;;5054839;28;20021;-77
2023/04/27 14:08:21;;;;;;;;;;;22.80;82.60;;;;;;5060013;28;20043;-78
2023/04/27 14:10:47;;;;;;;;;;;23.00;82.10;;;;;;5058377;28;19944;-77
2023/04/27 14:13:13;;;;;;;1.20;0.45;;;22.80;82.30;;;;;;5059607;28;20094;-78
2023/04/27 14:15:39;;;;;;;0.00;0.00;;;22.80;83.30;;;;;;5061382;28;20484;-78
2023/04/27 14:18:06;;;;;;;0.22;0.22;;;23.10;84.20;;;;;;5039404;28;20033;-77
2023/04/27 14:20:33;;;;;;;0.10;0.10;;;22.80;81.10;;;;;;5062533;28;20033;-77
2023/04/27 14:23:00;;;;;;;1.30;0.20;;;22.10;82.00;;;;;;5059953;28;20033;-76
2023/04/27 14:25:27;;;;;;;;;;;21.90;84.70;;;;;;5054123;28;20029;-77
2023/04/27 14:27:53;;;;;;;0.00;0.00;;;22.30;84.00;;;;;;5054782;28;20306;-78
2023/04/27 14:30:19;;;;;;;0.00;0.00;;;22.40;83.30;;;;;;5060138;28;20074;-78
2023/04/27 14:32:44;;;;;;;0.00;0.00;;;22.30;83.20;;;;;;5056251;28;20523;-77
2023/04/27 14:35:10;;;;;;;0.00;0.00;;;21.90;84.70;;;;;;5050359;28;20059;-77
2023/04/27 14:37:36;;;;;;;0.00;0.00;;;21.80;85.30;;;;;;5058980;28;20793;-77
2023/04/27 14:40:03;;;;;;;0.00;0.00;;;21.70;83.90;;;;;;5063945;28;20064;-78
2023/04/27 14:42:30;;;;;;;0.00;0.00;;;21.60;85.20;;;;;;5066139;28;20275;-77
2023/04/27 14:44:56;;;;;;;0.00;0.00;;;21.70;86.10;;;;;;5064057;28;20495;-78
2023/04/27 14:47:21;;;;;;;0.60;0.33;;;21.90;84.40;;;;;;5064832;28;20032;-78
2023/04/27 14:49:47;;;;;;;0.10;0.10;;;22.10;84.60;;;;;;5064790;28;20471;-78
2023/04/27 14:52:13;;;;;;;1.03;0.40;;;22.30;84.70;;;;;;5046478;28;20136;-78
2023/04/27 14:54:40;;;;;;;0.00;0.00;;;22.60;83.90;;;;;;5043319;28;20406;-77
2023/04/27 14:57:06;;;;;;;0.00;0.00;;;22.50;88.90;;;;;;5058858;28;20411;-78
2023/04/27 14:59:33;;;;;;;0.00;0.00;;;22.40;90.20;;;;;;5064763;28;20020;-79
2023/04/27 15:01:59;;;;;;;0.00;0.00;;;22.30;88.80;;;;;;5064402;28;20391;-79
2023/04/27 15:04:25;;;;;;;0.00;0.00;;;22.20;90.20;;;;;;5062689;28;20025;-78
2023/04/27 15:06:52;;;;;;;0.00;0.00;;;22.30;89.30;;;;;;5057937;28;20041;-77
2023/04/27 15:09:18;;;;;;;0.03;0.03;;;22.30;90.00;;;;;;5061764;28;20024;-77
2023/04/27 15:11:43;;;;;;;0.00;0.00;;;22.20;89.20;;;;;;5063777;28;21040;-79
2023/04/27 15:14:10;;;;;;;0.00;0.00;;;22.20;91.00;;;;;;5060516;28;20115;-78
2023/04/27 15:16:35;;;;;;;;;;;22.30;90.80;;;;;;5063595;28;20028;-77